Latest Weather Observations for Temora

IDN60801

Issued at 10:02 am EDT Tuesday 9 February 2016 (issued every 30 minutes, with the page automatically refreshed every 10 minutes)

About weather observations | Map of weather stations | Latest weather observations for NSW | Other Formats
Station Details ID: 073151 Name: TEMORA AIRPORT Lat: -34.43 Lon: 147.51 Height: 280.5 m
Data from the previous 72 hours. | See also: Recent months at Temora
Date/Time
EDT
Temp
°C
App
Temp
°C
Dew
Point
Rel
Hum
%
Delta-T
°C
Wind Press
QNH
hPa
Press
MSL
hPa
Rain
since 9 am
mm
Dir
 
Spd
km/h
Gust
km/h
Spd
kts
Gust
kts
09/10:00am 26.2 21.8 13.0 44 7.8 ENE 28 37 15 20 1020.9 1019.5 0.0
09/09:30am 24.9 20.8 12.8 47 7.1 ENE 26 35 14 19 1020.9 1019.5 0.0
09/09:00am 23.6 19.6 12.9 51 6.2 ENE 26 35 14 19 1020.9 1019.5 0.0
09/08:30am 22.5 19.5 13.6 57 5.2 ENE 22 30 12 16 1020.8 1019.4 0.0
09/08:00am 21.4 19.9 14.1 63 4.3 ENE 15 20 8 11 1020.7 1019.3 0.0
09/07:30am 20.1 18.8 13.8 67 3.7 ENE 13 20 7 11 1020.3 1018.9 0.0
09/07:00am 19.4 17.8 13.8 70 3.2 ENE 15 22 8 12 1020.2 1018.8 0.0
09/06:30am 19.3 17.6 13.7 70 3.2 E 15 22 8 12 1019.8 1018.4 0.0
09/06:00am 19.5 17.1 13.9 70 3.3 E 19 22 10 12 1019.5 1018.1 0.0
09/05:30am 19.7 17.7 13.9 69 3.4 ENE 17 20 9 11 1019.3 1017.9 0.0
09/05:00am 19.7 19.6 13.2 66 3.7 ENE 6 9 3 5 1019.2 1017.8 0.0
09/04:30am 20.9 19.5 13.4 62 4.4 ENE 13 19 7 10 1018.9 1017.4 0.0
09/04:00am 21.3 20.5 13.0 59 4.8 ENE 9 13 5 7 1018.6 1017.1 0.0
09/03:30am 22.4 20.7 12.6 54 5.7 E 13 17 7 9 1018.2 1016.8 0.0
09/03:00am 23.1 21.0 11.2 47 6.7 E 13 19 7 10 1018.0 1016.6 0.0
09/02:30am 23.9 20.3 9.9 41 7.8 E 19 26 10 14 1017.8 1016.4 0.0
09/02:00am 24.3 20.2 8.7 37 8.5 E 20 30 11 16 1017.7 1016.3 0.0
09/01:30am 24.9 21.0 8.8 36 8.8 E 19 26 10 14 1017.8 1016.4 0.0
09/01:00am 25.5 22.0 8.9 35 9.1 E 17 24 9 13 1018.0 1016.6 0.0
09/12:30am 25.8 22.6 10.0 37 8.9 E 17 24 9 13 1017.9 1016.5 0.0
09/12:00am 26.2 23.9 11.9 41 8.3 E 15 20 8 11 1017.7 1016.3 0.0
 
Date/Time
EDT
Temp
°C
App
Temp
°C
Dew
Point
Rel
Hum
%
Delta-T
°C
Wind Press
QNH
hPa
Press
MSL
hPa
Rain
since 9 am
mm
Dir
 
Spd
km/h
Gust
km/h
Spd
kts
Gust
kts
08/11:30pm 22.8 21.9 13.8 57 5.3 SE 11 22 6 12 1017.7 1016.3 0.0
08/11:00pm 21.5 21.5 14.2 63 4.3 S 7 11 4 6 1017.4 1016.0 0.0
08/10:30pm 21.8 21.6 13.7 60 4.7 SSW 7 9 4 5 1017.5 1016.1 0.0
08/10:00pm 23.2 22.8 13.1 53 5.9 S 7 7 4 4 1017.4 1016.0 0.0
08/09:30pm 25.0 25.2 13.2 48 7.0 SSW 4 6 2 3 1017.1 1015.7 0.0
08/09:00pm 26.3 25.8 12.0 41 8.3 S 6 7 3 4 1016.9 1015.5 0.0
08/08:30pm 28.1 27.0 10.8 34 9.9 S 7 9 4 5 1016.7 1015.3 0.0
08/08:00pm 30.7 28.3 10.1 28 11.8 S 13 19 7 10 1016.5 1015.1 0.0
08/07:30pm 32.2 29.5 10.3 26 12.7 S 15 20 8 11 1016.3 1014.9 0.0
08/07:00pm 32.6 29.6 9.4 24 13.3 SSE 15 26 8 14 1015.9 1014.5 0.0
08/06:30pm 33.0 29.7 9.7 24 13.4 SSE 17 22 9 12 1015.9 1014.5 0.0
08/06:00pm 33.3 29.4 8.7 22 14.0 SSE 19 26 10 14 1016.0 1014.6 0.0
08/05:30pm 33.6 29.4 8.3 21 14.3 SSE 20 30 11 16 1016.1 1014.7 0.0
08/05:00pm 33.6 29.8 7.6 20 14.5 S 17 30 9 16 1016.4 1015.0 0.0
08/04:30pm 33.6 29.2 9.0 22 14.1 SSE 22 33 12 18 1016.6 1015.2 0.0
08/04:00pm 33.5 30.4 10.2 24 13.6 SSE 17 28 9 15 1016.8 1015.4 0.0
08/03:30pm 33.7 30.6 10.3 24 13.7 SSE 17 32 9 17 1017.1 1015.7 0.0
08/03:00pm 33.2 29.4 9.9 24 13.5 S 20 30 11 16 1017.4 1016.0 0.0
08/02:30pm 33.6 30.1 10.2 24 13.6 SSE 19 32 10 17 1017.8 1016.4 0.0
08/02:00pm 33.2 30.1 11.7 27 12.8 SSE 19 30 10 16 1018.1 1016.7 0.0
08/01:30pm 32.5 29.3 11.1 27 12.6 S 19 32 10 17 1018.6 1017.1 0.0
08/01:00pm 31.8 30.4 12.1 30 11.7 SSE 11 22 6 12 1018.9 1017.4 0.0
08/12:30pm 30.9 28.8 12.3 32 11.1 SSW 15 22 8 12 1019.3 1017.9 0.0
08/12:00pm 30.2 29.6 11.7 32 10.9 SSW 6 15 3 8 1019.5 1018.1 0.0
08/11:30am 29.6 27.9 11.2 32 10.7 E 11 20 6 11 1019.9 1018.5 0.0
08/11:00am 28.6 27.3 11.2 34 10.1 E 9 19 5 10 1020.1 1018.7 0.0
08/10:30am 27.8 25.9 11.8 37 9.3 E 13 20 7 11 1020.2 1018.8 0.0
08/10:00am 26.9 25.6 12.5 40 8.4 ENE 11 17 6 9 1020.3 1018.9 0.0
08/09:30am 25.5 23.7 12.0 43 7.8 ENE 13 19 7 10 1020.2 1018.8 0.0
08/09:00am 24.6 23.0 12.9 48 6.8 ENE 13 17 7 9 1020.2 1018.8 0.0
08/08:30am 23.1 21.6 13.0 53 5.9 ENE 13 17 7 9 1020.1 1018.7 0.0
08/08:00am 20.1 21.7 14.9 72 3.1 CALM 0 0 0 0 1019.9 1018.5 0.0
08/07:30am 17.1 18.6 14.6 85 1.5 CALM 0 0 0 0 1019.7 1018.3 0.0
08/07:00am 15.9 16.8 13.0 83 1.6 CALM 0 0 0 0 1019.3 1017.9 0.0
08/06:30am 16.0 17.0 13.1 83 1.6 CALM 0 0 0 0 1019.0 1017.6 0.0
08/06:00am 16.4 17.2 12.6 78 2.1 CALM 0 0 0 0 1018.7 1017.2 0.0
08/05:30am 17.5 16.9 12.2 71 3.0 ENE 7 7 4 4 1018.3 1016.9 0.0
08/05:00am 17.4 17.6 11.9 70 3.1 ENE 2 7 1 4 1018.1 1016.7 0.0
08/04:30am 20.1 19.5 13.6 66 3.8 E 9 13 5 7 1017.9 1016.5 0.0
08/04:00am 17.9 17.7 11.9 68 3.3 ENE 4 9 2 5 1017.9 1016.5 0.0
08/03:30am 18.2 17.5 11.5 65 3.7 NNE 6 11 3 6 1017.8 1016.4 0.0
08/03:00am 22.0 20.4 12.8 56 5.3 E 13 15 7 8 1017.9 1016.5 0.0
08/02:30am 17.9 17.4 12.8 72 2.9 ENE 7 9 4 5 1018.0 1016.6 0.0
08/02:00am 18.4 17.9 12.8 70 3.2 E 7 11 4 6 1018.1 1016.7 0.0
08/01:30am 16.7 16.2 12.5 76 2.4 ESE 7 9 4 5 1018.1 1016.7 0.0
08/01:00am 17.9 18.8 13.0 73 2.8 CALM 0 0 0 0 1018.2 1016.8 0.0
08/12:30am 18.1 18.9 12.5 70 3.2 CALM 0 0 0 0 1018.0 1016.6 0.0
08/12:00am 17.8 18.6 12.7 72 2.9 CALM 0 0 0 0 1017.9 1016.5 0.0
 
Date/Time
EDT
Temp
°C
App
Temp
°C
Dew
Point
Rel
Hum
%
Delta-T
°C
Wind Press
QNH
hPa
Press
MSL
hPa
Rain
since 9 am
mm
Dir
 
Spd
km/h
Gust
km/h
Spd
kts
Gust
kts
07/11:30pm 18.8 18.6 13.0 69 3.3 SSW 6 7 3 4 1017.6 1016.2 0.0
07/11:00pm 18.7 18.3 12.5 67 3.5 S 6 7 3 4 1017.4 1016.0 0.0
07/10:30pm 20.0 19.4 12.3 61 4.4 S 7 9 4 5 1017.3 1015.9 0.0
07/10:00pm 20.6 19.9 12.1 58 4.8 SSW 7 7 4 4 1017.1 1015.7 0.0
07/09:30pm 20.9 20.0 11.3 54 5.4 SSW 7 9 4 5 1016.9 1015.5 0.0
07/09:00pm 23.3 21.9 11.0 46 6.9 S 9 9 5 5 1016.4 1015.0 0.0
07/08:30pm 25.3 23.4 9.2 36 8.9 S 9 13 5 7 1016.2 1014.8 0.0
07/08:00pm 28.4 25.1 8.1 28 11.2 SSE 15 19 8 10 1015.8 1014.4 0.0
07/07:30pm 29.6 26.6 7.5 25 12.1 SSE 13 17 7 9 1015.5 1014.0 0.0
07/07:00pm 30.1 25.6 6.1 22 12.9 SSE 19 24 10 13 1015.3 1013.8 0.0
07/06:30pm 30.5 27.0 7.0 23 12.8 SSE 15 24 8 13 1015.1 1013.6 0.0
07/06:00pm 30.8 27.4 9.1 26 12.3 SE 17 24 9 13 1015.0 1013.5 0.0
07/05:30pm 30.7 26.1 6.6 22 13.1 SSE 20 32 11 17 1015.2 1013.7 0.0
07/05:00pm 30.9 26.7 7.4 23 12.9 S 19 26 10 14 1015.4 1013.9 0.0
07/04:30pm 31.1 27.5 8.2 24 12.8 S 17 30 9 16 1015.4 1013.9 0.0
07/04:00pm 30.5 27.5 9.4 27 12.0 SSE 15 28 8 15 1015.5 1014.0 0.0
07/03:30pm 30.4 28.2 10.9 30 11.3 SSW 13 26 7 14 1015.9 1014.5 0.0
07/03:00pm 29.6 26.0 9.7 29 11.3 SSE 19 28 10 15 1016.1 1014.7 0.0
07/02:30pm 29.2 26.1 10.3 31 10.8 SE 17 26 9 14 1016.3 1014.9 0.0
07/02:00pm 28.8 26.6 10.9 33 10.3 S 13 30 7 16 1016.7 1015.3 0.0
07/01:30pm 28.2 25.3 10.9 34 10.0 S 17 26 9 14 1016.9 1015.5 0.0
07/01:00pm 27.8 25.9 10.5 34 9.9 ESE 11 19 6 10 1017.2 1015.8 0.0
07/12:30pm 27.4 26.3 11.8 38 9.1 SSE 9 17 5 9 1017.7 1016.3 0.0
07/12:00pm 26.2 25.4 11.2 39 8.6 E 6 15 3 8 1018.1 1016.7 0.0
07/11:30am 25.1 23.2 10.6 40 8.2 NE 11 20 6 11 1018.3 1016.9 0.0
07/11:00am 24.9 23.5 12.2 45 7.3 ENE 11 19 6 10 1018.7 1017.2 0.0
07/10:30am 23.8 22.0 12.1 48 6.7 ENE 13 20 7 11 1018.8 1017.3 0.0
07/10:00am 23.1 21.4 12.4 51 6.2 NE 13 20 7 11 1019.0 1017.6 0.0
07/09:30am 22.2 19.8 12.5 54 5.6 ENE 17 22 9 12 1019.1 1017.7 0.0
07/09:00am 21.3 19.5 13.2 60 4.7 E 15 20 8 11 1019.2 1017.8 0.0
07/08:30am 20.2 17.6 13.2 64 4.0 E 19 24 10 13 1019.0 1017.6 0.0
07/08:00am 19.2 17.0 13.2 68 3.4 E 17 22 9 12 1018.7 1017.2 0.0
07/07:30am 18.0 15.7 12.9 72 2.9 E 17 24 9 13 1018.3 1016.9 0.0
07/07:00am 17.3 16.1 12.8 75 2.5 E 11 17 6 9 1018.2 1016.8 0.0
07/06:30am 17.1 15.1 12.8 76 2.4 E 15 20 8 11 1017.9 1016.5 0.0
07/06:00am 17.2 15.2 12.7 75 2.5 ESE 15 20 8 11 1017.5 1016.1 0.0
07/05:30am 17.5 15.5 12.8 74 2.7 E 15 20 8 11 1017.3 1015.9 0.0
07/05:00am 17.9 16.0 13.0 73 2.8 E 15 20 8 11 1017.2 1015.8 0.0
07/04:30am 18.0 16.1 13.1 73 2.8 E 15 19 8 10 1017.0 1015.6 0.0
07/04:00am 18.4 16.6 13.3 72 2.9 ENE 15 20 8 11 1017.0 1015.6 0.0
07/03:30am 18.7 16.9 13.3 71 3.1 E 15 24 8 13 1017.0 1015.6 0.0
07/03:00am 19.1 17.0 13.5 70 3.2 E 17 22 9 12 1017.0 1015.6 0.0
07/02:30am 19.7 17.0 13.4 67 3.6 E 20 24 11 13 1017.0 1015.6 0.0
07/02:00am 20.5 17.8 13.5 64 4.1 E 20 28 11 15 1017.0 1015.6 0.0
07/01:30am 21.0 18.4 13.2 61 4.5 E 19 28 10 15 1017.2 1015.8 0.0
07/01:00am 21.6 19.4 13.2 59 4.9 E 17 24 9 13 1017.3 1015.9 0.0
07/12:30am 22.1 19.9 13.2 57 5.2 E 17 24 9 13 1017.1 1015.7 0.0
07/12:00am 22.5 20.2 13.0 55 5.5 E 17 20 9 11 1017.0 1015.6 0.0
 
Date/Time
EDT
Temp
°C
App
Temp
°C
Dew
Point
Rel
Hum
%
Delta-T
°C
Wind Press
QNH
hPa
Press
MSL
hPa
Rain
since 9 am
mm
Dir
 
Spd
km/h
Gust
km/h
Spd
kts
Gust
kts
06/11:30pm 23.2 20.8 12.8 52 6.0 E 17 22 9 12 1016.8 1015.4 0.0
06/11:00pm 23.7 20.8 13.0 51 6.2 E 20 32 11 17 1016.5 1015.1 0.0
06/10:30pm 24.2 21.3 12.8 49 6.7 ESE 20 28 11 15 1016.4 1015.0 0.0
06/10:00pm 25.1 22.1 12.7 46 7.2 E 20 28 11 15 1016.0 1014.6 0.0
06/09:30pm 25.7 23.4 12.9 45 7.5 ESE 17 26 9 14 1015.6 1014.1 0.0
06/09:00pm 26.7 23.3 12.4 41 8.4 ESE 22 32 12 17 1015.1 1013.6 0.0
06/08:30pm 27.5 24.0 12.3 39 8.9 ESE 22 32 12 17 1014.6 1013.2 0.0
06/08:00pm 27.9 25.0 12.3 38 9.2 SE 19 22 10 12 1014.3 1012.9 0.0
06/07:30pm 28.1 25.5 12.0 36 9.4 SE 17 24 9 13 1014.0 1012.6 0.0
06/07:00pm 28.4 26.4 11.5 35 9.8 E 13 17 7 9 1013.6 1012.2 0.0
06/06:30pm 29.0 27.3 11.1 33 10.4 ENE 11 15 6 8 1013.4 1012.0 0.0
06/06:00pm 29.9 28.5 12.3 33 10.4 SE 11 19 6 10 1013.4 1012.0 0.0
06/05:30pm 30.2 28.4 12.1 32 10.7 E 13 24 7 13 1013.5 1012.1 0.0
06/05:00pm 30.0 28.5 12.0 33 10.6 ESE 11 24 6 13 1013.7 1012.3 0.0
06/04:30pm 29.9 28.1 10.9 31 11.0 E 11 17 6 9 1014.0 1012.6 0.0
06/04:00pm 29.3 26.5 11.4 33 10.4 SE 17 26 9 14 1014.3 1012.9 0.0
06/03:30pm 28.2 25.7 10.9 34 10.0 SE 15 24 8 13 1014.9 1013.4 0.0
06/03:00pm 28.9 26.9 11.5 34 10.1 NE 13 24 7 13 1015.2 1013.7 0.0
06/02:30pm 28.4 26.3 11.0 34 10.0 ESE 13 20 7 11 1015.7 1014.2 0.0
06/02:00pm 28.7 26.9 12.2 36 9.7 E 13 19 7 10 1016.1 1014.7 0.0
06/01:30pm 27.4 24.8 10.6 35 9.6 ENE 15 26 8 14 1016.4 1015.0 0.0
06/01:00pm 27.4 24.4 11.8 38 9.1 ESE 19 28 10 15 1016.8 1015.4 0.0
06/12:30pm 26.3 22.9 10.5 37 9.0 NE 19 30 10 16 1017.2 1015.8 0.0
06/12:00pm 25.8 22.2 10.4 38 8.7 E 20 32 11 17 1017.5 1016.1 0.0
06/11:30am 25.1 21.1 10.6 40 8.2 ENE 22 32 12 17 1017.8 1016.4 0.0
06/11:00am 24.2 19.9 10.8 43 7.5 E 24 37 13 20 1018.1 1016.7 0.0
06/10:30am 24.0 19.2 11.7 46 7.0 E 28 41 15 22 1018.2 1016.8 0.0

Other Formats:

Comma delimited format used in spreadsheet applications
http://www.bom.gov.au/fwo/IDN60801/IDN60801.95722.axf

JavaScript Object Notation format (JSON) in row-major order
http://www.bom.gov.au/fwo/IDN60801/IDN60801.95722.json